Aviation Digital Data Service (ADDS)

Output produced by METARs form (0211 UTC 24 November 2017)
found at http://www.aviationweather.gov/adds/metars/
 
EFKU 240150Z AUTO 14015KT 8000 OVC005 M02/M03 Q1005
EFKU 240120Z AUTO 14014KT 8000 OVC005 M02/M03 Q1005
EFKU 240050Z AUTO 14014KT 9999 OVC006 M02/M04 Q1006
EFKU 240020Z AUTO 14015KT 100V170 9999 OVC006 M02/M04 Q1006
EFKU 232350Z AUTO 14017KT 100V170 9999 OVC006 M02/M04 Q1006 REFZRA
EFKU 232320Z AUTO 15018KT 9999 -FZRA VCSH OVC007 M02/M04 Q1007
EFKU 232250Z AUTO 15015KT 3900 -SN OVC009 M02/M04 Q1007
EFKU 232220Z AUTO 15016KT 5000 -FZRASN VCSH OVC008 M02/M04 Q1007
EFKU 232150Z AUTO 14017KT 1700 BR VCSH OVC008 M02/M04 Q1007
EFKU 232120Z AUTO 14018KT 1900 -SN OVC009CB M02/M04 Q1007
EFKU 232050Z AUTO 14019KT 2800 BR OVC010CB M02/M04 Q1008
EFKU 232020Z AUTO 14017KT 2900 -SN OVC009CB M02/M04 Q1008
EFKU 231950Z AUTO 14016KT 5000 -SN OVC010 M02/M04 Q1008
EFKU 231920Z AUTO 13017KT 6000 -SN VCSH OVC011 M03/M05 Q1008
EFKU 231850Z AUTO 13015KT 2300 BR OVC011 M03/M05 Q1009 RESN
EFKU 231820Z AUTO 12014G24KT 1000 DRSN OVC009 M03/M05 Q1009
EFKU 231750Z AUTO 13016KT 2100 BR OVC011 M03/M06 Q1009
EFKU 231720Z AUTO 13014G24KT 4200 -SN OVC011 M04/M06 Q1010
EFKU 231650Z AUTO 13014KT 4000 -SN OVC010 M04/M06 Q1010 RESN
EFKU 231620Z AUTO 13015G25KT 1000 DRSN OVC006 M04/M06 Q1010
EFKU 231550Z AUTO 12013G24KT 0800 DRSN OVC006 M04/M06 Q1011
EFKU 231520Z AUTO 12016KT 1000 DRSN OVC005 M04/M06 Q1011
EFKU 231450Z AUTO 13013KT 0750 DRSN OVC007 M05/M07 Q1013
EFKU 231420Z AUTO 11017G27KT 1500 -SN OVC010 M05/M07 Q1012
EFKU 231350Z 12014KT 4000 -SN OVC012 M05/M07 Q1013
EFKU 231320Z 12014G24KT 2000 SN OVC012 M05/M08 Q1014
EFKU 231250Z 13012KT 9999 OVC015 M05/M09 Q1015
EFKU 231220Z 13011KT 9999 SCT017 BKN070 M05/M09 Q1015
EFKU 231150Z 13013KT 9999 FEW013 OVC075 M05/M10 Q1015
EFKU 231120Z 13014KT 9999 FEW013 OVC085 M05/M10 Q1016
EFKU 231050Z 13015KT 9999 FEW013 OVC090 M05/M10 Q1016
EFKU 231020Z 13014KT 9999 FEW013 BKN100 M05/M10 Q1017
EFKU 230950Z 13016G28KT 9999 FEW013 BKN100 M05/M10 Q1017
EFKU 230920Z 13014KT 9999 FEW013 BKN110 M05/M10 Q1017
EFKU 230850Z 13012KT 9999 FEW013 BKN110 M05/M10 Q1018
EFKU 230820Z 13010KT 9999 FEW011 BKN140 M06/M09 Q1018
EFKU 230750Z RTD 13010KT 9999 FEW012 BKN140 M06/M09 Q1018
EFKU 230720Z 13010KT 090V160 9999 FEW013 BKN140 M06/M09 Q1018
EFKU 230650Z 13009KT 9999 SCT014 BKN140 M06/M10 Q1019
EFKU 230620Z 13011KT 9999 SCT013 BKN014 M06/M10 Q1019
EFKU 230550Z AUTO 14009KT 9999 BKN013 M06/M10 Q1019
EFKU 230520Z AUTO 11010KT 9999 BKN014 M06/M09 Q1019
EFKU 230450Z AUTO 11012KT 9999 BKN014 M06/M10 Q1019
EFKU 230420Z AUTO 11011KT 9999 BKN015 M06/M09 Q1019
EFKU 230350Z AUTO 10009KT 9999 BKN016 M06/M10 Q1019
EFKU 230320Z AUTO 13011KT 9999 BKN018 M06/M10 Q1019
EFKU 230250Z AUTO 12013KT 9999 OVC019 M06/M10 Q1019
EFKU 230220Z AUTO 11011KT 9999 -SHSN OVC019 M05/M10 Q1020
EFKU 230150Z AUTO 12011KT 070V150 9999 OVC019 M06/M10 Q1020
EFKU 230120Z AUTO 11013KT 9999 OVC015 M06/M10 Q1020
EFKU 230050Z AUTO 11010KT 9999 OVC015 M06/M09 Q1020
EFKU 230020Z AUTO 09009KT 9999 OVC015 M06/M09 Q1020
EFKU 222350Z AUTO 11011KT 060V140 9999 -SG OVC015 M06/M10 Q1021
EFKU 222320Z AUTO 10008KT 060V140 9999 OVC015 M06/M10 Q1021
EFKU 222250Z AUTO 10010KT 9999 OVC014 M06/M10 Q1021
EFKU 222220Z AUTO 10009KT 060V140 9999 OVC014 M06/M10 Q1020
EFKU 222150Z AUTO 08009KT 9999 OVC014 M06/M10 Q1020
EFKU 222120Z AUTO 08007KT 050V120 9999 OVC015 M06/M10 Q1020
EFKU 222050Z AUTO 10008KT 060V130 9999 OVC015 M06/M10 Q1020
EFKU 222020Z AUTO 07009KT 9999 OVC017 M06/M10 Q1020
EFKU 221950Z AUTO 08005KT 9999 OVC017 M05/M09 Q1020
EFKU 221920Z AUTO 09004KT 9999 OVC016 M05/M09 Q1020
EFKU 221850Z AUTO 07007KT 9999 OVC016 M05/M09 Q1020
EFKU 221820Z AUTO 08006KT 020V210 9999 OVC016 M06/M09 Q1020
EFKU 221750Z AUTO 09005KT 060V130 9999 OVC016 M05/M09 Q1020
EFKU 221720Z AUTO 06006KT 010V130 9999 OVC017 M05/M09 Q1020
EFKU 221650Z AUTO 08006KT 020V140 9999 OVC015 M05/M09 Q1020
EFKU 221620Z AUTO 09005KT 9999 OVC011 M05/M08 Q1020
EFKU 221550Z AUTO 05011KT 9999 OVC010 M06/M08 Q1020
EFKU 221520Z AUTO 06006KT 9999 OVC011 M06/M08 Q1020
EFKU 221450Z AUTO 06011KT 9999 OVC013 M05/M08 Q1020
EFKU 221420Z AUTO 06009KT 9999 OVC014 M05/M08 Q1019